Sao Joao de Barra, Brazil
Current Conditions -  °F | °C
As of 1:30 PM on Thursday 30 Oct 2014 (Local Time) from SBBQ Reporting Station
Thunderstorm Thunderstorm  
Wind Chill: 68°   Ceiling: 3500
Heat Index: 68°   Visibility: 0.25mi
Dew Point: 63°   Wind: 12mph
Humidity: 83%   Direction: 300°WNW
Pressure: 30.09"   Gusts: NA
Location:  21.13°S, 44.27°W
Report Text: SBBQ 301530Z 30010KT 0400 TSRA FEW030CB BKN035 20/17 Q1019
Loading
Personal Weather Stations






























Interactive Weather Map
Tropical Storm Tracking
New forecast layout! Learn more

10-Day Weather Forecast

Advertisements
Track Severe Weather on mobile